sensor_id;sensor_type;location;lat;lon;timestamp;P1;durP1;ratioP1;P2;durP2;ratioP2
7330;SDS011;3706;49.198;7.064;2022-08-18T00:01:47;6.60;;;5.40;;
7330;SDS011;3706;49.198;7.064;2022-08-18T00:04:17;5.80;;;5.30;;
7330;SDS011;3706;49.198;7.064;2022-08-18T00:06:44;6.00;;;5.40;;
7330;SDS011;3706;49.198;7.064;2022-08-18T00:09:11;5.83;;;5.33;;
7330;SDS011;3706;49.198;7.064;2022-08-18T00:11:38;5.67;;;5.17;;
7330;SDS011;3706;49.198;7.064;2022-08-18T00:14:08;6.00;;;5.40;;
7330;SDS011;3706;49.198;7.064;2022-08-18T00:16:38;5.50;;;5.10;;
7330;SDS011;3706;49.198;7.064;2022-08-18T00:19:05;6.60;;;5.90;;
7330;SDS011;3706;49.198;7.064;2022-08-18T00:21:33;5.73;;;5.00;;
7330;SDS011;3706;49.198;7.064;2022-08-18T00:24:00;6.17;;;5.63;;
7330;SDS011;3706;49.198;7.064;2022-08-18T00:26:27;5.87;;;5.37;;
7330;SDS011;3706;49.198;7.064;2022-08-18T00:28:54;5.77;;;5.30;;
7330;SDS011;3706;49.198;7.064;2022-08-18T00:31:21;6.23;;;5.63;;
7330;SDS011;3706;49.198;7.064;2022-08-18T00:33:48;8.10;;;6.03;;
7330;SDS011;3706;49.198;7.064;2022-08-18T00:36:15;6.80;;;5.83;;
7330;SDS011;3706;49.198;7.064;2022-08-18T00:38:43;6.13;;;5.53;;
7330;SDS011;3706;49.198;7.064;2022-08-18T00:41:11;5.47;;;4.97;;
7330;SDS011;3706;49.198;7.064;2022-08-18T00:43:39;5.90;;;5.30;;
7330;SDS011;3706;49.198;7.064;2022-08-18T00:46:08;7.17;;;5.50;;
7330;SDS011;3706;49.198;7.064;2022-08-18T00:48:39;6.00;;;4.67;;
7330;SDS011;3706;49.198;7.064;2022-08-18T00:51:07;7.27;;;5.30;;
7330;SDS011;3706;49.198;7.064;2022-08-18T00:53:40;6.07;;;5.47;;
7330;SDS011;3706;49.198;7.064;2022-08-18T00:56:15;6.63;;;5.50;;
7330;SDS011;3706;49.198;7.064;2022-08-18T00:58:47;6.97;;;5.33;;
7330;SDS011;3706;49.198;7.064;2022-08-18T01:01:19;6.47;;;5.57;;
7330;SDS011;3706;49.198;7.064;2022-08-18T01:03:48;6.20;;;5.70;;
7330;SDS011;3706;49.198;7.064;2022-08-18T01:06:22;5.50;;;5.00;;
7330;SDS011;3706;49.198;7.064;2022-08-18T01:08:54;5.93;;;5.43;;
7330;SDS011;3706;49.198;7.064;2022-08-18T01:11:21;6.63;;;4.93;;
7330;SDS011;3706;49.198;7.064;2022-08-18T01:13:48;6.83;;;4.97;;
7330;SDS011;3706;49.198;7.064;2022-08-18T01:16:15;5.40;;;4.90;;
7330;SDS011;3706;49.198;7.064;2022-08-18T01:19:01;5.27;;;4.83;;
7330;SDS011;3706;49.198;7.064;2022-08-18T01:21:47;5.63;;;5.10;;
7330;SDS011;3706;49.198;7.064;2022-08-18T01:24:19;5.70;;;5.20;;
7330;SDS011;3706;49.198;7.064;2022-08-18T01:27:10;5.67;;;5.03;;
7330;SDS011;3706;49.198;7.064;2022-08-18T01:29:42;5.13;;;4.73;;
7330;SDS011;3706;49.198;7.064;2022-08-18T01:32:09;5.57;;;5.07;;
7330;SDS011;3706;49.198;7.064;2022-08-18T01:34:40;6.30;;;5.57;;
7330;SDS011;3706;49.198;7.064;2022-08-18T01:37:12;6.00;;;5.40;;
7330;SDS011;3706;49.198;7.064;2022-08-18T01:39:43;6.13;;;5.50;;
7330;SDS011;3706;49.198;7.064;2022-08-18T01:42:10;6.23;;;5.67;;
7330;SDS011;3706;49.198;7.064;2022-08-18T01:44:38;5.97;;;5.40;;
7330;SDS011;3706;49.198;7.064;2022-08-18T01:47:06;6.33;;;5.70;;
7330;SDS011;3706;49.198;7.064;2022-08-18T01:49:34;5.50;;;5.00;;
7330;SDS011;3706;49.198;7.064;2022-08-18T01:52:02;5.73;;;5.13;;
7330;SDS011;3706;49.198;7.064;2022-08-18T01:54:31;6.50;;;5.33;;
7330;SDS011;3706;49.198;7.064;2022-08-18T01:56:59;6.47;;;5.30;;
7330;SDS011;3706;49.198;7.064;2022-08-18T01:59:27;8.40;;;5.87;;
7330;SDS011;3706;49.198;7.064;2022-08-18T02:01:54;6.17;;;5.57;;
7330;SDS011;3706;49.198;7.064;2022-08-18T02:04:23;6.30;;;5.70;;
7330;SDS011;3706;49.198;7.064;2022-08-18T02:06:53;7.07;;;5.60;;
7330;SDS011;3706;49.198;7.064;2022-08-18T02:09:21;6.77;;;6.13;;
7330;SDS011;3706;49.198;7.064;2022-08-18T02:11:48;6.90;;;5.73;;
7330;SDS011;3706;49.198;7.064;2022-08-18T02:14:17;6.80;;;5.90;;
7330;SDS011;3706;49.198;7.064;2022-08-18T02:16:44;9.00;;;7.50;;
7330;SDS011;3706;49.198;7.064;2022-08-18T02:19:11;7.93;;;7.13;;
7330;SDS011;3706;49.198;7.064;2022-08-18T02:21:38;12.53;;;6.53;;
7330;SDS011;3706;49.198;7.064;2022-08-18T02:24:05;8.23;;;7.13;;
7330;SDS011;3706;49.198;7.064;2022-08-18T02:26:32;10.60;;;7.63;;
7330;SDS011;3706;49.198;7.064;2022-08-18T02:28:59;8.53;;;7.00;;
7330;SDS011;3706;49.198;7.064;2022-08-18T02:31:28;7.00;;;6.23;;
7330;SDS011;3706;49.198;7.064;2022-08-18T02:33:55;10.33;;;8.20;;
7330;SDS011;3706;49.198;7.064;2022-08-18T02:36:23;10.73;;;7.67;;
7330;SDS011;3706;49.198;7.064;2022-08-18T02:38:50;9.93;;;8.27;;
7330;SDS011;3706;49.198;7.064;2022-08-18T02:41:17;8.67;;;6.93;;
7330;SDS011;3706;49.198;7.064;2022-08-18T02:43:44;11.30;;;9.23;;
7330;SDS011;3706;49.198;7.064;2022-08-18T02:46:13;11.13;;;8.37;;
7330;SDS011;3706;49.198;7.064;2022-08-18T02:48:41;10.20;;;8.90;;
7330;SDS011;3706;49.198;7.064;2022-08-18T02:51:10;9.63;;;8.67;;
7330;SDS011;3706;49.198;7.064;2022-08-18T02:53:39;10.53;;;9.47;;
7330;SDS011;3706;49.198;7.064;2022-08-18T02:56:08;9.67;;;8.70;;
7330;SDS011;3706;49.198;7.064;2022-08-18T02:58:47;8.63;;;7.83;;
7330;SDS011;3706;49.198;7.064;2022-08-18T03:01:17;12.13;;;8.77;;
7330;SDS011;3706;49.198;7.064;2022-08-18T03:03:46;10.03;;;8.27;;
7330;SDS011;3706;49.198;7.064;2022-08-18T03:06:12;8.73;;;7.93;;
7330;SDS011;3706;49.198;7.064;2022-08-18T03:08:39;9.87;;;8.43;;
7330;SDS011;3706;49.198;7.064;2022-08-18T03:11:07;8.53;;;7.47;;
7330;SDS011;3706;49.198;7.064;2022-08-18T03:13:34;9.17;;;8.27;;
7330;SDS011;3706;49.198;7.064;2022-08-18T03:16:02;8.30;;;7.53;;
7330;SDS011;3706;49.198;7.064;2022-08-18T03:18:29;10.43;;;8.53;;
7330;SDS011;3706;49.198;7.064;2022-08-18T03:20:57;8.30;;;7.47;;
7330;SDS011;3706;49.198;7.064;2022-08-18T03:23:29;10.60;;;9.60;;
7330;SDS011;3706;49.198;7.064;2022-08-18T03:25:56;8.83;;;7.17;;
7330;SDS011;3706;49.198;7.064;2022-08-18T03:28:23;9.23;;;8.20;;
7330;SDS011;3706;49.198;7.064;2022-08-18T03:30:50;8.80;;;8.00;;
7330;SDS011;3706;49.198;7.064;2022-08-18T03:33:17;7.73;;;7.03;;
7330;SDS011;3706;49.198;7.064;2022-08-18T03:35:44;8.87;;;7.97;;
7330;SDS011;3706;49.198;7.064;2022-08-18T03:38:12;8.43;;;7.63;;
7330;SDS011;3706;49.198;7.064;2022-08-18T03:40:39;11.17;;;9.60;;
7330;SDS011;3706;49.198;7.064;2022-08-18T03:43:07;10.03;;;9.13;;
7330;SDS011;3706;49.198;7.064;2022-08-18T03:45:34;9.43;;;8.53;;
7330;SDS011;3706;49.198;7.064;2022-08-18T03:48:01;9.17;;;8.27;;
7330;SDS011;3706;49.198;7.064;2022-08-18T03:50:28;9.97;;;8.97;;
7330;SDS011;3706;49.198;7.064;2022-08-18T03:52:56;9.27;;;8.33;;
7330;SDS011;3706;49.198;7.064;2022-08-18T03:55:25;9.43;;;8.53;;
7330;SDS011;3706;49.198;7.064;2022-08-18T03:57:56;10.80;;;9.47;;
7330;SDS011;3706;49.198;7.064;2022-08-18T04:00:27;11.60;;;10.50;;
7330;SDS011;3706;49.198;7.064;2022-08-18T04:02:54;12.20;;;10.67;;
7330;SDS011;3706;49.198;7.064;2022-08-18T04:05:21;10.33;;;9.43;;
7330;SDS011;3706;49.198;7.064;2022-08-18T04:07:48;10.20;;;8.87;;
7330;SDS011;3706;49.198;7.064;2022-08-18T04:10:15;9.03;;;8.10;;
7330;SDS011;3706;49.198;7.064;2022-08-18T04:12:44;10.40;;;8.37;;
7330;SDS011;3706;49.198;7.064;2022-08-18T04:15:11;9.13;;;8.23;;
7330;SDS011;3706;49.198;7.064;2022-08-18T04:17:38;10.67;;;8.53;;
7330;SDS011;3706;49.198;7.064;2022-08-18T04:20:05;10.90;;;9.23;;
7330;SDS011;3706;49.198;7.064;2022-08-18T04:22:34;12.10;;;10.93;;
7330;SDS011;3706;49.198;7.064;2022-08-18T04:25:01;10.13;;;9.17;;
7330;SDS011;3706;49.198;7.064;2022-08-18T04:27:29;12.47;;;11.27;;
7330;SDS011;3706;49.198;7.064;2022-08-18T04:29:57;12.07;;;10.83;;
7330;SDS011;3706;49.198;7.064;2022-08-18T04:32:24;10.20;;;9.10;;
7330;SDS011;3706;49.198;7.064;2022-08-18T04:34:51;9.53;;;8.47;;
7330;SDS011;3706;49.198;7.064;2022-08-18T04:37:18;11.67;;;10.57;;
7330;SDS011;3706;49.198;7.064;2022-08-18T04:39:46;11.40;;;10.20;;
7330;SDS011;3706;49.198;7.064;2022-08-18T04:42:13;11.17;;;9.37;;
7330;SDS011;3706;49.198;7.064;2022-08-18T04:44:40;12.77;;;11.47;;
7330;SDS011;3706;49.198;7.064;2022-08-18T04:47:09;9.80;;;8.90;;
7330;SDS011;3706;49.198;7.064;2022-08-18T04:49:37;10.50;;;9.40;;
7330;SDS011;3706;49.198;7.064;2022-08-18T04:52:04;11.47;;;10.27;;
7330;SDS011;3706;49.198;7.064;2022-08-18T04:54:49;13.57;;;11.53;;
7330;SDS011;3706;49.198;7.064;2022-08-18T04:57:17;11.07;;;9.97;;
7330;SDS011;3706;49.198;7.064;2022-08-18T04:59:47;12.17;;;10.63;;
7330;SDS011;3706;49.198;7.064;2022-08-18T05:02:16;13.80;;;12.50;;
7330;SDS011;3706;49.198;7.064;2022-08-18T05:04:44;10.33;;;9.40;;
7330;SDS011;3706;49.198;7.064;2022-08-18T05:07:12;12.90;;;10.73;;
7330;SDS011;3706;49.198;7.064;2022-08-18T05:09:41;11.70;;;10.57;;
7330;SDS011;3706;49.198;7.064;2022-08-18T05:12:09;13.47;;;12.10;;
7330;SDS011;3706;49.198;7.064;2022-08-18T05:14:37;12.50;;;11.20;;
7330;SDS011;3706;49.198;7.064;2022-08-18T05:17:04;15.80;;;9.87;;
7330;SDS011;3706;49.198;7.064;2022-08-18T05:19:33;11.50;;;10.30;;
7330;SDS011;3706;49.198;7.064;2022-08-18T05:22:00;14.80;;;13.30;;
7330;SDS011;3706;49.198;7.064;2022-08-18T05:24:28;11.10;;;9.93;;
7330;SDS011;3706;49.198;7.064;2022-08-18T05:26:57;15.50;;;11.77;;
7330;SDS011;3706;49.198;7.064;2022-08-18T05:29:24;14.33;;;12.83;;
7330;SDS011;3706;49.198;7.064;2022-08-18T05:31:52;14.67;;;12.00;;
7330;SDS011;3706;49.198;7.064;2022-08-18T05:34:20;14.53;;;13.10;;
7330;SDS011;3706;49.198;7.064;2022-08-18T05:36:54;15.80;;;13.17;;
7330;SDS011;3706;49.198;7.064;2022-08-18T05:39:29;14.77;;;13.27;;
7330;SDS011;3706;49.198;7.064;2022-08-18T05:42:04;15.77;;;14.13;;
7330;SDS011;3706;49.198;7.064;2022-08-18T05:44:34;15.73;;;14.13;;
7330;SDS011;3706;49.198;7.064;2022-08-18T05:47:05;11.83;;;10.73;;
7330;SDS011;3706;49.198;7.064;2022-08-18T05:49:36;10.17;;;9.10;;
7330;SDS011;3706;49.198;7.064;2022-08-18T05:52:07;15.87;;;14.33;;
7330;SDS011;3706;49.198;7.064;2022-08-18T05:54:39;10.57;;;9.20;;
7330;SDS011;3706;49.198;7.064;2022-08-18T05:57:27;14.43;;;13.03;;
7330;SDS011;3706;49.198;7.064;2022-08-18T05:59:58;15.47;;;13.97;;
7330;SDS011;3706;49.198;7.064;2022-08-18T06:02:27;13.00;;;11.67;;
7330;SDS011;3706;49.198;7.064;2022-08-18T06:04:58;15.17;;;13.77;;
7330;SDS011;3706;49.198;7.064;2022-08-18T06:07:33;14.67;;;12.40;;
7330;SDS011;3706;49.198;7.064;2022-08-18T06:10:04;13.87;;;12.50;;
7330;SDS011;3706;49.198;7.064;2022-08-18T06:12:34;12.07;;;10.87;;
7330;SDS011;3706;49.198;7.064;2022-08-18T06:15:04;10.60;;;9.60;;
7330;SDS011;3706;49.198;7.064;2022-08-18T06:17:42;9.40;;;7.97;;
7330;SDS011;3706;49.198;7.064;2022-08-18T06:20:20;11.60;;;10.37;;
7330;SDS011;3706;49.198;7.064;2022-08-18T06:22:57;12.90;;;11.67;;
7330;SDS011;3706;49.198;7.064;2022-08-18T06:25:47;14.57;;;10.67;;
7330;SDS011;3706;49.198;7.064;2022-08-18T06:28:22;8.60;;;7.80;;
7330;SDS011;3706;49.198;7.064;2022-08-18T06:30:51;11.57;;;10.20;;
7330;SDS011;3706;49.198;7.064;2022-08-18T06:33:36;9.07;;;8.27;;
7330;SDS011;3706;49.198;7.064;2022-08-18T06:36:15;11.80;;;10.60;;
7330;SDS011;3706;49.198;7.064;2022-08-18T06:38:55;10.93;;;9.80;;
7330;SDS011;3706;49.198;7.064;2022-08-18T06:41:33;14.50;;;11.23;;
7330;SDS011;3706;49.198;7.064;2022-08-18T06:44:03;11.93;;;10.70;;
7330;SDS011;3706;49.198;7.064;2022-08-18T06:46:35;15.83;;;11.37;;
7330;SDS011;3706;49.198;7.064;2022-08-18T06:49:09;10.17;;;9.20;;
7330;SDS011;3706;49.198;7.064;2022-08-18T06:51:39;12.37;;;11.27;;
7330;SDS011;3706;49.198;7.064;2022-08-18T06:54:24;11.13;;;10.03;;
7330;SDS011;3706;49.198;7.064;2022-08-18T06:56:54;11.37;;;10.20;;
7330;SDS011;3706;49.198;7.064;2022-08-18T06:59:23;13.03;;;10.03;;
7330;SDS011;3706;49.198;7.064;2022-08-18T07:01:52;11.33;;;9.97;;
7330;SDS011;3706;49.198;7.064;2022-08-18T07:04:41;10.50;;;9.50;;
7330;SDS011;3706;49.198;7.064;2022-08-18T07:07:28;11.20;;;9.90;;
7330;SDS011;3706;49.198;7.064;2022-08-18T07:09:59;11.00;;;9.80;;
7330;SDS011;3706;49.198;7.064;2022-08-18T07:12:27;11.50;;;9.17;;
7330;SDS011;3706;49.198;7.064;2022-08-18T07:14:55;9.97;;;8.97;;
7330;SDS011;3706;49.198;7.064;2022-08-18T07:17:25;10.60;;;9.60;;
7330;SDS011;3706;49.198;7.064;2022-08-18T07:19:58;10.27;;;8.90;;
7330;SDS011;3706;49.198;7.064;2022-08-18T07:22:27;10.27;;;9.17;;
7330;SDS011;3706;49.198;7.064;2022-08-18T07:24:56;11.87;;;10.77;;
7330;SDS011;3706;49.198;7.064;2022-08-18T07:27:39;11.97;;;10.77;;
7330;SDS011;3706;49.198;7.064;2022-08-18T07:30:10;11.23;;;9.57;;
7330;SDS011;3706;49.198;7.064;2022-08-18T07:32:39;11.10;;;9.60;;
7330;SDS011;3706;49.198;7.064;2022-08-18T07:35:11;11.77;;;9.13;;
7330;SDS011;3706;49.198;7.064;2022-08-18T07:37:44;12.53;;;11.33;;
7330;SDS011;3706;49.198;7.064;2022-08-18T07:40:21;11.77;;;8.57;;
7330;SDS011;3706;49.198;7.064;2022-08-18T07:42:52;13.30;;;11.47;;
7330;SDS011;3706;49.198;7.064;2022-08-18T07:45:26;12.23;;;10.17;;
7330;SDS011;3706;49.198;7.064;2022-08-18T07:47:59;12.03;;;9.77;;
7330;SDS011;3706;49.198;7.064;2022-08-18T07:50:33;13.97;;;10.27;;
7330;SDS011;3706;49.198;7.064;2022-08-18T07:53:11;11.83;;;9.63;;
7330;SDS011;3706;49.198;7.064;2022-08-18T07:55:57;10.17;;;9.17;;
7330;SDS011;3706;49.198;7.064;2022-08-18T07:58:30;12.43;;;11.13;;
7330;SDS011;3706;49.198;7.064;2022-08-18T08:01:04;10.47;;;9.43;;
7330;SDS011;3706;49.198;7.064;2022-08-18T08:03:43;9.83;;;8.80;;
7330;SDS011;3706;49.198;7.064;2022-08-18T08:06:18;12.77;;;11.57;;
7330;SDS011;3706;49.198;7.064;2022-08-18T08:08:51;12.27;;;10.90;;
7330;SDS011;3706;49.198;7.064;2022-08-18T08:11:31;14.37;;;10.73;;
7330;SDS011;3706;49.198;7.064;2022-08-18T08:14:11;10.97;;;9.93;;
7330;SDS011;3706;49.198;7.064;2022-08-18T08:16:59;11.43;;;10.40;;
7330;SDS011;3706;49.198;7.064;2022-08-18T08:22:27;11.53;;;10.43;;
7330;SDS011;3706;49.198;7.064;2022-08-18T08:25:00;10.93;;;9.83;;
7330;SDS011;3706;49.198;7.064;2022-08-18T08:27:37;9.67;;;8.20;;
7330;SDS011;3706;49.198;7.064;2022-08-18T08:30:20;11.20;;;10.10;;
7330;SDS011;3706;49.198;7.064;2022-08-18T08:32:54;11.93;;;10.80;;
7330;SDS011;3706;49.198;7.064;2022-08-18T08:35:34;11.23;;;10.17;;
7330;SDS011;3706;49.198;7.064;2022-08-18T08:38:07;17.03;;;10.83;;
7330;SDS011;3706;49.198;7.064;2022-08-18T08:40:41;13.10;;;11.80;;
7330;SDS011;3706;49.198;7.064;2022-08-18T08:43:20;13.20;;;11.50;;
7330;SDS011;3706;49.198;7.064;2022-08-18T08:45:54;11.80;;;10.60;;
7330;SDS011;3706;49.198;7.064;2022-08-18T08:48:30;12.63;;;11.33;;
7330;SDS011;3706;49.198;7.064;2022-08-18T08:51:01;12.10;;;10.90;;
7330;SDS011;3706;49.198;7.064;2022-08-18T08:53:37;11.07;;;9.97;;
7330;SDS011;3706;49.198;7.064;2022-08-18T08:56:12;12.33;;;10.67;;
7330;SDS011;3706;49.198;7.064;2022-08-18T08:58:43;10.77;;;9.67;;
7330;SDS011;3706;49.198;7.064;2022-08-18T09:01:19;9.90;;;8.97;;
7330;SDS011;3706;49.198;7.064;2022-08-18T09:03:55;12.53;;;11.17;;
7330;SDS011;3706;49.198;7.064;2022-08-18T09:06:28;12.00;;;10.80;;
7330;SDS011;3706;49.198;7.064;2022-08-18T09:09:12;10.80;;;9.40;;
7330;SDS011;3706;49.198;7.064;2022-08-18T09:11:58;11.50;;;10.27;;
7330;SDS011;3706;49.198;7.064;2022-08-18T09:14:42;8.93;;;8.13;;
7330;SDS011;3706;49.198;7.064;2022-08-18T09:17:30;12.30;;;11.03;;
7330;SDS011;3706;49.198;7.064;2022-08-18T09:20:23;9.47;;;8.57;;
7330;SDS011;3706;49.198;7.064;2022-08-18T09:23:03;12.50;;;11.23;;
7330;SDS011;3706;49.198;7.064;2022-08-18T09:25:43;14.17;;;12.87;;
7330;SDS011;3706;49.198;7.064;2022-08-18T09:28:14;15.63;;;14.00;;
7330;SDS011;3706;49.198;7.064;2022-08-18T09:30:46;14.67;;;13.27;;
7330;SDS011;3706;49.198;7.064;2022-08-18T09:33:20;16.30;;;14.70;;
7330;SDS011;3706;49.198;7.064;2022-08-18T09:35:56;15.47;;;14.07;;
7330;SDS011;3706;49.198;7.064;2022-08-18T09:38:31;15.67;;;14.07;;
7330;SDS011;3706;49.198;7.064;2022-08-18T09:41:22;15.93;;;14.33;;
7330;SDS011;3706;49.198;7.064;2022-08-18T09:43:59;15.67;;;14.17;;
7330;SDS011;3706;49.198;7.064;2022-08-18T09:46:54;14.80;;;13.50;;
7330;SDS011;3706;49.198;7.064;2022-08-18T09:55:38;11.97;;;10.07;;
7330;SDS011;3706;49.198;7.064;2022-08-18T09:58:18;14.87;;;13.43;;
7330;SDS011;3706;49.198;7.064;2022-08-18T10:01:19;14.43;;;13.07;;
7330;SDS011;3706;49.198;7.064;2022-08-18T10:04:17;14.17;;;12.83;;
7330;SDS011;3706;49.198;7.064;2022-08-18T10:07:15;14.40;;;13.27;;
7330;SDS011;3706;49.198;7.064;2022-08-18T10:10:08;14.73;;;13.27;;
7330;SDS011;3706;49.198;7.064;2022-08-18T10:12:51;14.13;;;12.73;;
7330;SDS011;3706;49.198;7.064;2022-08-18T10:15:41;13.87;;;12.73;;
7330;SDS011;3706;49.198;7.064;2022-08-18T10:21:18;13.70;;;12.40;;
7330;SDS011;3706;49.198;7.064;2022-08-18T10:23:53;13.73;;;12.37;;
7330;SDS011;3706;49.198;7.064;2022-08-18T10:29:52;14.50;;;13.20;;
7330;SDS011;3706;49.198;7.064;2022-08-18T10:38:21;12.77;;;11.57;;
7330;SDS011;3706;49.198;7.064;2022-08-18T10:40:53;14.60;;;12.70;;
7330;SDS011;3706;49.198;7.064;2022-08-18T10:43:27;14.10;;;12.80;;
7330;SDS011;3706;49.198;7.064;2022-08-18T10:46:00;14.00;;;12.50;;
7330;SDS011;3706;49.198;7.064;2022-08-18T10:48:29;13.47;;;12.23;;
7330;SDS011;3706;49.198;7.064;2022-08-18T10:51:01;15.23;;;12.97;;
7330;SDS011;3706;49.198;7.064;2022-08-18T10:53:37;15.30;;;12.93;;
7330;SDS011;3706;49.198;7.064;2022-08-18T10:56:11;15.87;;;14.40;;
7330;SDS011;3706;49.198;7.064;2022-08-18T11:01:53;13.30;;;12.00;;
7330;SDS011;3706;49.198;7.064;2022-08-18T11:04:41;14.20;;;13.00;;
7330;SDS011;3706;49.198;7.064;2022-08-18T11:07:11;14.73;;;13.43;;
7330;SDS011;3706;49.198;7.064;2022-08-18T11:09:45;14.70;;;13.20;;
7330;SDS011;3706;49.198;7.064;2022-08-18T11:12:14;14.50;;;13.10;;
7330;SDS011;3706;49.198;7.064;2022-08-18T11:15:09;15.13;;;13.73;;
7330;SDS011;3706;49.198;7.064;2022-08-18T11:17:51;13.47;;;12.17;;
7330;SDS011;3706;49.198;7.064;2022-08-18T11:20:28;15.27;;;13.87;;
7330;SDS011;3706;49.198;7.064;2022-08-18T11:22:57;14.97;;;13.57;;
7330;SDS011;3706;49.198;7.064;2022-08-18T11:25:28;14.97;;;13.50;;
7330;SDS011;3706;49.198;7.064;2022-08-18T11:27:58;13.73;;;12.53;;
7330;SDS011;3706;49.198;7.064;2022-08-18T11:30:27;14.13;;;12.83;;
7330;SDS011;3706;49.198;7.064;2022-08-18T11:32:57;15.17;;;13.63;;
7330;SDS011;3706;49.198;7.064;2022-08-18T11:35:26;12.27;;;11.07;;
7330;SDS011;3706;49.198;7.064;2022-08-18T11:37:57;13.23;;;12.03;;
7330;SDS011;3706;49.198;7.064;2022-08-18T11:40:29;12.67;;;11.40;;
7330;SDS011;3706;49.198;7.064;2022-08-18T11:43:00;14.03;;;12.57;;
7330;SDS011;3706;49.198;7.064;2022-08-18T11:45:33;14.30;;;13.10;;
7330;SDS011;3706;49.198;7.064;2022-08-18T11:48:16;14.47;;;12.50;;
7330;SDS011;3706;49.198;7.064;2022-08-18T11:50:46;12.63;;;11.43;;
7330;SDS011;3706;49.198;7.064;2022-08-18T11:53:20;13.83;;;12.53;;
7330;SDS011;3706;49.198;7.064;2022-08-18T11:56:03;14.70;;;13.43;;
7330;SDS011;3706;49.198;7.064;2022-08-18T11:58:37;12.97;;;11.77;;
7330;SDS011;3706;49.198;7.064;2022-08-18T12:01:05;15.13;;;13.83;;
7330;SDS011;3706;49.198;7.064;2022-08-18T12:03:38;14.73;;;13.30;;
7330;SDS011;3706;49.198;7.064;2022-08-18T12:06:09;13.37;;;11.77;;
7330;SDS011;3706;49.198;7.064;2022-08-18T12:08:48;13.53;;;12.37;;
7330;SDS011;3706;49.198;7.064;2022-08-18T12:11:20;11.87;;;10.77;;
7330;SDS011;3706;49.198;7.064;2022-08-18T12:13:56;13.20;;;11.90;;
7330;SDS011;3706;49.198;7.064;2022-08-18T12:16:37;12.60;;;11.40;;
7330;SDS011;3706;49.198;7.064;2022-08-18T12:19:05;11.60;;;10.57;;
7330;SDS011;3706;49.198;7.064;2022-08-18T12:21:38;11.70;;;10.60;;
7330;SDS011;3706;49.198;7.064;2022-08-18T12:24:07;11.37;;;10.07;;
7330;SDS011;3706;49.198;7.064;2022-08-18T12:26:39;12.57;;;11.37;;
7330;SDS011;3706;49.198;7.064;2022-08-18T12:29:06;12.63;;;11.50;;
7330;SDS011;3706;49.198;7.064;2022-08-18T12:31:33;12.13;;;11.03;;
7330;SDS011;3706;49.198;7.064;2022-08-18T12:34:00;11.60;;;10.60;;
7330;SDS011;3706;49.198;7.064;2022-08-18T12:36:28;11.30;;;10.30;;
7330;SDS011;3706;49.198;7.064;2022-08-18T12:38:55;11.33;;;10.40;;
7330;SDS011;3706;49.198;7.064;2022-08-18T12:41:23;9.83;;;8.93;;
7330;SDS011;3706;49.198;7.064;2022-08-18T12:43:51;9.87;;;9.03;;
7330;SDS011;3706;49.198;7.064;2022-08-18T12:46:18;10.77;;;9.60;;
7330;SDS011;3706;49.198;7.064;2022-08-18T12:48:45;9.67;;;8.67;;
7330;SDS011;3706;49.198;7.064;2022-08-18T12:51:13;11.03;;;9.93;;
7330;SDS011;3706;49.198;7.064;2022-08-18T12:53:40;9.73;;;8.93;;
7330;SDS011;3706;49.198;7.064;2022-08-18T12:56:10;9.77;;;8.87;;
7330;SDS011;3706;49.198;7.064;2022-08-18T12:58:44;10.40;;;9.60;;
7330;SDS011;3706;49.198;7.064;2022-08-18T13:01:13;10.50;;;9.60;;
7330;SDS011;3706;49.198;7.064;2022-08-18T13:03:40;9.60;;;8.80;;
7330;SDS011;3706;49.198;7.064;2022-08-18T13:06:08;9.83;;;8.93;;
7330;SDS011;3706;49.198;7.064;2022-08-18T13:08:36;9.33;;;8.43;;
7330;SDS011;3706;49.198;7.064;2022-08-18T13:11:03;9.63;;;8.73;;
7330;SDS011;3706;49.198;7.064;2022-08-18T13:13:35;9.50;;;8.60;;
7330;SDS011;3706;49.198;7.064;2022-08-18T13:16:04;9.47;;;8.67;;
7330;SDS011;3706;49.198;7.064;2022-08-18T13:18:33;9.60;;;8.70;;
7330;SDS011;3706;49.198;7.064;2022-08-18T13:21:00;9.67;;;8.77;;
7330;SDS011;3706;49.198;7.064;2022-08-18T13:23:28;9.33;;;8.43;;
7330;SDS011;3706;49.198;7.064;2022-08-18T13:25:56;10.70;;;9.77;;
7330;SDS011;3706;49.198;7.064;2022-08-18T13:28:25;9.93;;;8.93;;
7330;SDS011;3706;49.198;7.064;2022-08-18T13:30:53;9.15;;;8.35;;
7330;SDS011;3706;49.198;7.064;2022-08-18T13:33:20;9.05;;;8.18;;
7330;SDS011;3706;49.198;7.064;2022-08-18T13:35:48;9.90;;;9.00;;
7330;SDS011;3706;49.198;7.064;2022-08-18T13:38:16;8.10;;;7.40;;
7330;SDS011;3706;49.198;7.064;2022-08-18T13:40:47;10.67;;;8.77;;
7330;SDS011;3706;49.198;7.064;2022-08-18T13:43:15;9.47;;;8.50;;
7330;SDS011;3706;49.198;7.064;2022-08-18T13:45:45;10.68;;;9.88;;
7330;SDS011;3706;49.198;7.064;2022-08-18T13:48:14;10.10;;;8.70;;
7330;SDS011;3706;49.198;7.064;2022-08-18T13:50:41;10.30;;;9.40;;
7330;SDS011;3706;49.198;7.064;2022-08-18T13:53:11;11.40;;;9.43;;
7330;SDS011;3706;49.198;7.064;2022-08-18T13:55:42;10.40;;;9.50;;
7330;SDS011;3706;49.198;7.064;2022-08-18T13:58:09;10.47;;;9.43;;
7330;SDS011;3706;49.198;7.064;2022-08-18T14:00:36;9.17;;;8.37;;
7330;SDS011;3706;49.198;7.064;2022-08-18T14:03:04;9.73;;;8.83;;
7330;SDS011;3706;49.198;7.064;2022-08-18T14:05:33;8.95;;;8.05;;
7330;SDS011;3706;49.198;7.064;2022-08-18T14:08:00;8.53;;;7.30;;
7330;SDS011;3706;49.198;7.064;2022-08-18T14:10:29;9.20;;;8.40;;
7330;SDS011;3706;49.198;7.064;2022-08-18T14:12:58;8.60;;;7.82;;
7330;SDS011;3706;49.198;7.064;2022-08-18T14:15:26;8.88;;;8.05;;
7330;SDS011;3706;49.198;7.064;2022-08-18T14:17:53;10.98;;;8.40;;
7330;SDS011;3706;49.198;7.064;2022-08-18T14:20:20;9.63;;;8.65;;
7330;SDS011;3706;49.198;7.064;2022-08-18T14:23:19;8.45;;;7.75;;
7330;SDS011;3706;49.198;7.064;2022-08-18T14:26:03;9.57;;;8.80;;
7330;SDS011;3706;49.198;7.064;2022-08-18T14:28:48;10.15;;;9.25;;
7330;SDS011;3706;49.198;7.064;2022-08-18T14:31:15;8.87;;;8.17;;
7330;SDS011;3706;49.198;7.064;2022-08-18T14:33:42;10.00;;;9.07;;
7330;SDS011;3706;49.198;7.064;2022-08-18T14:36:10;9.25;;;8.45;;
7330;SDS011;3706;49.198;7.064;2022-08-18T14:38:38;9.23;;;8.43;;
7330;SDS011;3706;49.198;7.064;2022-08-18T14:41:11;10.10;;;9.17;;
7330;SDS011;3706;49.198;7.064;2022-08-18T14:43:40;9.90;;;9.00;;
7330;SDS011;3706;49.198;7.064;2022-08-18T14:46:09;10.67;;;9.67;;
7330;SDS011;3706;49.198;7.064;2022-08-18T14:48:36;9.87;;;9.07;;
7330;SDS011;3706;49.198;7.064;2022-08-18T14:51:03;9.90;;;9.10;;
7330;SDS011;3706;49.198;7.064;2022-08-18T14:53:32;11.13;;;10.13;;
7330;SDS011;3706;49.198;7.064;2022-08-18T14:56:01;11.10;;;9.67;;
7330;SDS011;3706;49.198;7.064;2022-08-18T14:58:31;11.20;;;10.07;;
7330;SDS011;3706;49.198;7.064;2022-08-18T15:01:00;9.35;;;8.40;;
7330;SDS011;3706;49.198;7.064;2022-08-18T15:03:30;9.73;;;8.73;;
7330;SDS011;3706;49.198;7.064;2022-08-18T15:05:57;11.00;;;10.13;;
7330;SDS011;3706;49.198;7.064;2022-08-18T15:08:26;10.60;;;9.60;;
7330;SDS011;3706;49.198;7.064;2022-08-18T15:10:54;10.60;;;9.60;;
7330;SDS011;3706;49.198;7.064;2022-08-18T15:13:22;10.83;;;9.83;;
7330;SDS011;3706;49.198;7.064;2022-08-18T15:15:51;10.93;;;9.90;;
7330;SDS011;3706;49.198;7.064;2022-08-18T15:18:19;9.80;;;9.00;;
7330;SDS011;3706;49.198;7.064;2022-08-18T15:20:48;11.80;;;10.63;;
7330;SDS011;3706;49.198;7.064;2022-08-18T15:23:29;10.93;;;9.93;;
7330;SDS011;3706;49.198;7.064;2022-08-18T15:26:16;11.27;;;10.37;;
7330;SDS011;3706;49.198;7.064;2022-08-18T15:28:45;10.30;;;9.40;;
7330;SDS011;3706;49.198;7.064;2022-08-18T15:31:13;10.60;;;9.60;;
7330;SDS011;3706;49.198;7.064;2022-08-18T15:33:40;10.13;;;9.23;;
7330;SDS011;3706;49.198;7.064;2022-08-18T15:36:07;11.30;;;10.30;;
7330;SDS011;3706;49.198;7.064;2022-08-18T15:38:34;11.07;;;10.10;;
7330;SDS011;3706;49.198;7.064;2022-08-18T15:41:02;11.13;;;10.23;;
7330;SDS011;3706;49.198;7.064;2022-08-18T15:43:30;9.50;;;8.80;;
7330;SDS011;3706;49.198;7.064;2022-08-18T15:45:58;10.57;;;9.57;;
7330;SDS011;3706;49.198;7.064;2022-08-18T15:48:27;11.37;;;10.30;;
7330;SDS011;3706;49.198;7.064;2022-08-18T15:50:54;10.67;;;9.67;;
7330;SDS011;3706;49.198;7.064;2022-08-18T15:53:22;11.33;;;10.20;;